createdAt,value
2019-03-23T00:00:37.253Z,39.58
2019-03-23T00:01:41.176Z,39.17
2019-03-23T00:02:43.485Z,39.72
2019-03-23T00:03:45.674Z,39.46
2019-03-23T00:04:47.842Z,39.12
2019-03-23T00:05:49.921Z,39.08
2019-03-23T00:06:51.697Z,39.99
2019-03-23T00:07:53.789Z,39.71
2019-03-23T00:08:55.936Z,39.01
2019-03-23T00:09:58.714Z,39.06
2019-03-23T00:11:00.922Z,39.15
2019-03-23T00:12:03.291Z,39.04
2019-03-23T00:13:05.493Z,38.26
2019-03-23T00:14:07.967Z,38.56
2019-03-23T00:15:10.717Z,39.37
2019-03-23T00:16:12.521Z,38.82
2019-03-23T00:17:14.843Z,39.28
2019-03-23T00:18:17.605Z,38.64
2019-03-23T00:19:19.756Z,39.14
2019-03-23T00:20:21.825Z,38.95
2019-03-23T00:21:23.881Z,38.77
2019-03-23T00:22:26.127Z,39.19
2019-03-23T00:23:28.028Z,39.12
2019-03-23T00:24:30.112Z,39.13
2019-03-23T00:25:31.791Z,38.89
2019-03-23T00:26:33.831Z,38.27
2019-03-23T00:27:36.284Z,38.99
2019-03-23T00:28:38.944Z,39.38
2019-03-23T00:29:41.031Z,38.60
2019-03-23T00:30:42.903Z,38.33
2019-03-23T00:31:44.771Z,38.65
2019-03-23T00:32:46.792Z,39.13
2019-03-23T00:33:49.071Z,38.87
2019-03-23T00:34:51.141Z,39.18
2019-03-23T00:35:53.282Z,39.21
2019-03-23T00:36:55.145Z,39.24
2019-03-23T00:37:57.364Z,38.79
2019-03-23T00:38:59.380Z,38.98
2019-03-23T00:40:01.851Z,38.77
2019-03-23T00:41:04.123Z,39.02
2019-03-23T00:42:06.131Z,38.82
2019-03-23T00:43:08.090Z,39.39
2019-03-23T00:44:11.302Z,38.80
2019-03-23T00:45:14.004Z,39.03
2019-03-23T00:46:15.682Z,39.23
2019-03-23T00:47:17.879Z,38.66
2019-03-23T00:48:19.934Z,38.81
2019-03-23T00:49:22.253Z,39.17
2019-03-23T00:50:24.669Z,38.72
2019-03-23T00:51:26.855Z,39.07
2019-03-23T00:52:28.837Z,38.90
2019-03-23T00:53:30.942Z,38.56
2019-03-23T00:54:33.114Z,38.45
2019-03-23T00:55:35.087Z,38.85
2019-03-23T00:56:37.209Z,38.84
2019-03-23T00:57:38.889Z,38.66
2019-03-23T00:58:40.971Z,38.94
2019-03-23T00:59:42.911Z,38.72
2019-03-23T01:00:44.821Z,38.45
2019-03-23T01:01:47.807Z,38.65
2019-03-23T01:02:49.928Z,38.63
2019-03-23T01:03:52.277Z,38.57
2019-03-23T01:04:54.552Z,38.15
2019-03-23T01:05:56.865Z,37.89
2019-03-23T01:06:58.998Z,38.27
2019-03-23T01:08:00.965Z,38.14
2019-03-23T01:09:05.747Z,37.99
2019-03-23T01:10:10.989Z,38.22
2019-03-23T01:11:13.060Z,38.26
2019-03-23T01:12:15.325Z,37.64
2019-03-23T01:13:17.038Z,37.44
2019-03-23T01:14:18.984Z,37.29
2019-03-23T01:15:20.745Z,37.75
2019-03-23T01:16:23.010Z,37.78
2019-03-23T01:17:25.014Z,38.20
2019-03-23T01:18:27.236Z,37.39
2019-03-23T01:19:30.844Z,37.77
2019-03-23T01:20:33.955Z,37.19
2019-03-23T01:21:36.148Z,36.76
2019-03-23T01:22:38.576Z,36.70
2019-03-23T01:23:40.567Z,36.80
2019-03-23T01:24:42.549Z,36.98
2019-03-23T01:25:44.764Z,36.64
2019-03-23T01:26:46.931Z,36.89
2019-03-23T01:27:48.580Z,36.83
2019-03-23T01:28:50.730Z,37.18
2019-03-23T01:29:52.784Z,36.85
2019-03-23T01:30:56.374Z,36.77
2019-03-23T01:31:58.760Z,36.73
2019-03-23T01:33:00.750Z,36.85
2019-03-23T01:34:02.571Z,36.60
2019-03-23T01:35:06.077Z,36.73
2019-03-23T01:36:08.192Z,36.31
2019-03-23T01:37:10.336Z,36.96
2019-03-23T01:38:12.402Z,36.66
2019-03-23T01:39:14.668Z,36.33
2019-03-23T01:40:16.318Z,36.79
2019-03-23T01:41:20.689Z,36.24
2019-03-23T01:42:23.943Z,37.12
2019-03-23T01:43:25.968Z,36.84
2019-03-23T01:44:28.100Z,37.13
2019-03-23T01:45:30.229Z,37.35
2019-03-23T01:46:32.189Z,37.17
2019-03-23T01:47:34.403Z,37.33
2019-03-23T01:48:36.417Z,36.35
2019-03-23T01:49:38.486Z,36.77
2019-03-23T01:50:40.560Z,37.02
2019-03-23T01:51:42.568Z,36.29
2019-03-23T01:52:44.923Z,36.15
2019-03-23T01:53:47.023Z,36.15
2019-03-23T01:54:50.181Z,36.30
2019-03-23T01:55:52.233Z,35.84
2019-03-23T01:56:55.306Z,35.76
2019-03-23T01:57:57.085Z,36.52
2019-03-23T01:58:59.278Z,35.94
2019-03-23T02:00:01.827Z,35.50
2019-03-23T02:01:04.369Z,35.06
2019-03-23T02:02:06.651Z,36.41
2019-03-23T02:03:08.907Z,35.59
2019-03-23T02:04:10.935Z,35.52
2019-03-23T02:05:14.410Z,35.73
2019-03-23T02:06:16.531Z,36.44
2019-03-23T02:07:18.591Z,35.28
2019-03-23T02:08:20.660Z,36.59
2019-03-23T02:09:24.481Z,35.70
2019-03-23T02:10:26.779Z,35.77
2019-03-23T02:11:29.037Z,35.04
2019-03-23T02:12:30.908Z,35.11
2019-03-23T02:13:34.072Z,35.90
2019-03-23T02:14:36.416Z,35.56
2019-03-23T02:15:38.086Z,35.64
2019-03-23T02:16:40.207Z,35.94
2019-03-23T02:17:42.172Z,36.26
2019-03-23T02:18:43.874Z,35.92
2019-03-23T02:19:46.220Z,35.18
2019-03-23T02:20:50.010Z,35.87
2019-03-23T02:21:51.960Z,36.68
2019-03-23T02:22:53.881Z,34.42
2019-03-23T02:23:55.876Z,33.48
2019-03-23T02:24:58.138Z,35.09
2019-03-23T02:26:00.230Z,35.93
2019-03-23T02:27:02.533Z,35.79
2019-03-23T02:28:04.962Z,35.36
2019-03-23T02:29:07.083Z,35.85
2019-03-23T02:30:11.019Z,35.84
2019-03-23T02:31:12.797Z,36.61
2019-03-23T02:32:14.864Z,35.92
2019-03-23T02:33:16.873Z,35.88
2019-03-23T02:34:18.640Z,35.22
2019-03-23T02:35:20.702Z,34.36
2019-03-23T02:36:22.406Z,35.56
2019-03-23T02:37:28.094Z,35.19
2019-03-23T02:38:30.404Z,34.88
2019-03-23T02:39:33.558Z,35.48
2019-03-23T02:40:35.907Z,34.83
2019-03-23T02:41:37.887Z,36.37
2019-03-23T02:42:39.927Z,36.04
2019-03-23T02:43:41.972Z,34.94
2019-03-23T02:44:43.945Z,34.91
2019-03-23T02:45:46.011Z,34.28
2019-03-23T02:46:48.132Z,35.60
2019-03-23T02:47:50.105Z,34.71
2019-03-23T02:48:51.897Z,34.77
2019-03-23T02:49:55.222Z,33.57
2019-03-23T02:50:57.316Z,34.24
2019-03-23T02:51:58.969Z,35.01
2019-03-23T02:53:01.176Z,35.02
2019-03-23T02:54:03.469Z,34.39
2019-03-23T02:55:08.183Z,34.91
2019-03-23T02:56:10.233Z,34.88
2019-03-23T02:57:12.041Z,34.21
2019-03-23T02:58:13.692Z,33.68
2019-03-23T02:59:15.849Z,34.45
2019-03-23T03:00:17.981Z,35.13
2019-03-23T03:01:19.634Z,34.27
2019-03-23T03:02:21.718Z,33.53
2019-03-23T03:03:23.498Z,34.79
2019-03-23T03:04:25.572Z,33.71
2019-03-23T03:05:27.778Z,34.79
2019-03-23T03:06:29.753Z,33.74
2019-03-23T03:07:42.120Z,33.12
2019-03-23T03:08:35.603Z,34.03
2019-03-23T03:09:37.594Z,33.32
2019-03-23T03:10:40.752Z,33.63
2019-03-23T03:11:42.741Z,32.28
2019-03-23T03:12:44.741Z,34.21
2019-03-23T03:13:48.465Z,32.96
2019-03-23T03:14:50.555Z,34.10
2019-03-23T03:15:52.668Z,32.03
2019-03-23T03:16:54.669Z,31.66
2019-03-23T03:17:56.714Z,33.80
2019-03-23T03:18:58.404Z,33.51
2019-03-23T03:20:00.668Z,33.86
2019-03-23T03:21:03.220Z,33.45
2019-03-23T03:22:05.511Z,32.42
2019-03-23T03:23:07.827Z,34.13
2019-03-23T03:24:09.768Z,32.44
2019-03-23T03:25:12.003Z,32.59
2019-03-23T03:26:14.332Z,32.39
2019-03-23T03:27:16.521Z,32.90
2019-03-23T03:28:18.907Z,34.01
2019-03-23T03:29:21.041Z,33.37
2019-03-23T03:30:23.068Z,33.39
2019-03-23T03:31:25.810Z,32.58
2019-03-23T03:32:27.881Z,33.21
2019-03-23T03:33:29.618Z,33.91
2019-03-23T03:34:31.655Z,33.88
2019-03-23T03:35:33.740Z,32.17
2019-03-23T03:36:35.513Z,34.06
2019-03-23T03:38:39.357Z,33.50
2019-03-23T03:39:41.431Z,33.05
2019-03-23T03:40:43.834Z,33.41
2019-03-23T03:41:46.017Z,33.85
2019-03-23T03:42:48.388Z,33.47
2019-03-23T03:43:51.440Z,32.94
2019-03-23T03:44:53.591Z,32.64
2019-03-23T03:45:55.356Z,31.92
2019-03-23T03:46:57.325Z,32.30
2019-03-23T03:47:59.438Z,33.34
2019-03-23T03:49:11.923Z,32.49
2019-03-23T03:50:08.041Z,32.67
2019-03-23T03:51:10.010Z,32.82
2019-03-23T03:52:11.763Z,33.74
2019-03-23T03:53:13.761Z,32.78
2019-03-23T03:54:15.843Z,33.15
2019-03-23T03:55:18.121Z,32.42
2019-03-23T03:56:20.213Z,32.46
2019-03-23T03:57:22.130Z,32.43
2019-03-23T03:58:24.142Z,34.03
2019-03-23T03:59:26.449Z,33.28
2019-03-23T04:00:28.869Z,33.66
2019-03-23T04:01:31.670Z,32.69
2019-03-23T04:02:33.777Z,32.32
2019-03-23T04:03:35.989Z,32.97
2019-03-23T04:04:37.949Z,33.69
2019-03-23T04:05:39.997Z,33.67
2019-03-23T04:06:41.787Z,34.59
2019-03-23T04:07:44.178Z,34.15
2019-03-23T04:08:46.426Z,34.06
2019-03-23T04:09:48.079Z,33.57
2019-03-23T04:10:50.207Z,34.71
2019-03-23T04:11:52.350Z,35.33
2019-03-23T04:12:54.127Z,33.50
2019-03-23T04:13:57.602Z,34.92
2019-03-23T04:14:59.861Z,33.78
2019-03-23T04:16:01.835Z,34.61
2019-03-23T04:17:04.070Z,33.50
2019-03-23T04:18:06.265Z,34.28
2019-03-23T04:19:08.353Z,34.14
2019-03-23T04:20:10.730Z,34.24
2019-03-23T04:21:12.816Z,33.67
2019-03-23T04:22:16.490Z,33.37
2019-03-23T04:23:18.519Z,35.32
2019-03-23T04:24:20.264Z,33.58
2019-03-23T04:25:21.912Z,33.13
2019-03-23T04:26:24.303Z,32.81
2019-03-23T04:27:26.015Z,33.15
2019-03-23T04:28:28.028Z,32.51
2019-03-23T04:29:30.276Z,32.50
2019-03-23T04:30:32.838Z,33.10
2019-03-23T04:31:34.926Z,32.79
2019-03-23T04:32:37.276Z,33.63
2019-03-23T04:33:39.587Z,33.64
2019-03-23T04:34:41.557Z,34.63
2019-03-23T04:35:43.573Z,35.22
2019-03-23T04:36:45.723Z,34.84
2019-03-23T04:37:47.800Z,35.03
2019-03-23T04:38:49.819Z,34.35
2019-03-23T04:39:51.808Z,34.94
2019-03-23T04:40:54.286Z,34.77
2019-03-23T04:41:56.504Z,32.72
2019-03-23T04:42:59.048Z,33.86
2019-03-23T04:44:01.260Z,33.96
2019-03-23T04:45:06.714Z,32.58
2019-03-23T04:46:08.464Z,33.94
2019-03-23T04:47:10.740Z,32.41
2019-03-23T04:48:12.985Z,32.71
2019-03-23T04:49:15.060Z,33.03
2019-03-23T04:50:17.529Z,34.09
2019-03-23T04:51:19.768Z,33.69
2019-03-23T04:52:21.413Z,33.52
2019-03-23T04:53:23.503Z,34.20
2019-03-23T04:54:25.519Z,33.88
2019-03-23T04:55:27.476Z,34.27
2019-03-23T04:56:29.633Z,33.11
2019-03-23T04:57:31.647Z,32.73
2019-03-23T04:58:33.322Z,33.28
2019-03-23T04:59:35.626Z,33.55
2019-03-23T05:00:37.290Z,33.95
2019-03-23T05:01:39.287Z,34.04
2019-03-23T05:02:41.623Z,34.49
2019-03-23T05:03:43.265Z,33.57
2019-03-23T05:04:45.548Z,33.82
2019-03-23T05:05:47.563Z,32.97
2019-03-23T05:06:49.617Z,32.85
2019-03-23T05:07:53.869Z,33.08
2019-03-23T05:08:55.921Z,32.41
2019-03-23T05:09:57.697Z,32.95
2019-03-23T05:10:59.770Z,34.21
2019-03-23T05:12:02.000Z,34.75
2019-03-23T05:13:04.403Z,33.58
2019-03-23T05:14:06.404Z,33.31
2019-03-23T05:15:08.709Z,33.72
2019-03-23T05:16:11.700Z,34.04
2019-03-23T05:17:13.984Z,35.07
2019-03-23T05:18:15.976Z,34.53
2019-03-23T05:19:17.684Z,34.03
2019-03-23T05:20:28.600Z,32.86
2019-03-23T05:21:30.753Z,33.15
2019-03-23T05:22:32.744Z,33.59
2019-03-23T05:23:35.320Z,33.39
2019-03-23T05:24:37.772Z,33.99
2019-03-23T05:25:39.826Z,34.55
2019-03-23T05:26:42.910Z,34.21
2019-03-23T05:27:44.782Z,34.16
2019-03-23T05:28:46.810Z,33.82
2019-03-23T05:29:48.841Z,34.05
2019-03-23T05:30:50.868Z,33.97
2019-03-23T05:31:52.828Z,33.62
2019-03-23T05:32:55.041Z,34.00
2019-03-23T05:33:57.197Z,34.22
2019-03-23T05:34:59.326Z,34.80
2019-03-23T05:36:01.404Z,34.18
2019-03-23T05:37:03.486Z,33.47
2019-03-23T05:38:05.703Z,33.38
2019-03-23T05:39:07.829Z,35.63
2019-03-23T05:40:09.928Z,34.00
2019-03-23T05:41:12.174Z,34.98
2019-03-23T05:42:14.191Z,34.15
2019-03-23T05:43:16.299Z,33.43
2019-03-23T05:44:18.325Z,35.13
2019-03-23T05:45:20.146Z,34.25
2019-03-23T05:46:22.299Z,34.43
2019-03-23T05:47:24.718Z,34.92
2019-03-23T05:48:26.896Z,33.50
2019-03-23T05:49:28.924Z,35.40
2019-03-23T05:50:30.961Z,34.15
2019-03-23T05:51:33.124Z,33.93
2019-03-23T05:52:35.278Z,34.28
2019-03-23T05:53:37.261Z,34.84
2019-03-23T05:54:39.525Z,33.95
2019-03-23T05:55:41.727Z,36.06
2019-03-23T05:56:43.703Z,35.02
2019-03-23T05:57:45.913Z,34.36
2019-03-23T05:58:48.881Z,34.69
2019-03-23T05:59:51.129Z,33.66
2019-03-23T06:00:52.825Z,34.71
2019-03-23T06:01:54.843Z,33.46
2019-03-23T06:02:56.971Z,34.06
2019-03-23T06:03:58.646Z,33.65
2019-03-23T06:05:02.432Z,34.53
2019-03-23T06:06:04.831Z,34.85
2019-03-23T06:07:07.822Z,34.65
2019-03-23T06:08:09.826Z,34.63
2019-03-23T06:09:14.127Z,35.25
2019-03-23T06:10:16.294Z,34.90
2019-03-23T06:11:18.403Z,32.65
2019-03-23T06:12:20.513Z,32.61
2019-03-23T06:13:22.918Z,32.48
2019-03-23T06:14:25.250Z,32.73
2019-03-23T06:15:27.393Z,32.83
2019-03-23T06:16:29.356Z,32.69
2019-03-23T06:17:31.538Z,35.97
2019-03-23T06:18:33.671Z,36.40
2019-03-23T06:19:35.788Z,36.57
2019-03-23T06:20:37.968Z,36.57
2019-03-23T06:21:39.632Z,35.56
2019-03-23T06:22:41.692Z,36.84
2019-03-23T06:23:44.009Z,36.81
2019-03-23T06:24:45.732Z,36.80
2019-03-23T06:25:47.904Z,35.20
2019-03-23T06:26:51.183Z,36.03
2019-03-23T06:27:53.194Z,36.37
2019-03-23T06:28:55.536Z,36.29
2019-03-23T06:29:57.715Z,35.92
2019-03-23T06:30:59.978Z,36.64
2019-03-23T06:32:02.310Z,37.06
2019-03-23T06:33:04.724Z,36.01
2019-03-23T06:34:07.205Z,36.56
2019-03-23T06:35:09.556Z,36.20
2019-03-23T06:36:11.545Z,35.44
2019-03-23T06:37:13.242Z,35.65
2019-03-23T06:38:16.407Z,36.16
2019-03-23T06:39:18.341Z,35.25
2019-03-23T06:40:20.146Z,36.05
2019-03-23T06:41:22.636Z,35.64
2019-03-23T06:42:24.979Z,36.03
2019-03-23T06:43:27.090Z,35.55
2019-03-23T06:44:29.148Z,34.76
2019-03-23T06:45:31.057Z,36.23
2019-03-23T06:46:33.073Z,36.11
2019-03-23T06:47:35.181Z,36.19
2019-03-23T06:48:37.526Z,35.76
2019-03-23T06:49:39.685Z,36.23
2019-03-23T06:50:41.823Z,36.01
2019-03-23T06:51:43.883Z,35.60
2019-03-23T06:52:46.041Z,35.65
2019-03-23T06:53:48.149Z,35.11
2019-03-23T06:54:50.026Z,35.31
2019-03-23T06:55:52.123Z,34.93
2019-03-23T06:56:54.087Z,36.13
2019-03-23T06:57:56.059Z,35.51
2019-03-23T06:58:58.265Z,35.84
2019-03-23T07:00:00.489Z,34.62
2019-03-23T07:01:02.781Z,36.09
2019-03-23T07:02:05.112Z,35.38
2019-03-23T07:03:06.944Z,35.44
2019-03-23T07:04:09.094Z,34.91
2019-03-23T07:05:12.085Z,33.79
2019-03-23T07:06:14.264Z,32.36
2019-03-23T07:07:16.104Z,34.35
2019-03-23T07:08:18.210Z,34.70
2019-03-23T07:09:20.200Z,34.79
2019-03-23T07:10:22.159Z,36.49
2019-03-23T07:11:24.251Z,35.19
2019-03-23T07:12:26.452Z,35.99
2019-03-23T07:13:30.323Z,35.97
2019-03-23T07:14:32.308Z,33.37
2019-03-23T07:15:34.194Z,35.54
2019-03-23T07:16:36.179Z,34.33
2019-03-23T07:17:38.501Z,36.42
2019-03-23T07:18:40.660Z,37.77
2019-03-23T07:19:42.918Z,33.24
2019-03-23T07:20:44.890Z,33.39
2019-03-23T07:21:46.692Z,32.62
2019-03-23T07:22:48.669Z,32.22
2019-03-23T07:23:50.733Z,32.50
2019-03-23T07:24:52.782Z,31.59
2019-03-23T07:25:54.987Z,33.13
2019-03-23T07:26:56.977Z,32.69
2019-03-23T07:27:59.839Z,32.66
2019-03-23T07:29:03.369Z,33.89
2019-03-23T07:30:10.044Z,39.86
2019-03-23T07:31:12.316Z,34.11
2019-03-23T07:32:14.278Z,32.71
2019-03-23T07:33:16.295Z,37.75
2019-03-23T07:34:18.296Z,40.37
2019-03-23T07:35:20.282Z,34.11
2019-03-23T07:36:22.491Z,32.17
2019-03-23T07:37:25.150Z,33.23
2019-03-23T07:38:27.375Z,33.03
2019-03-23T07:39:30.546Z,39.34
2019-03-23T07:40:33.072Z,39.59
2019-03-23T07:41:35.285Z,35.97
2019-03-23T07:42:37.073Z,37.38
2019-03-23T07:43:39.355Z,34.89
2019-03-23T07:44:41.444Z,36.43
2019-03-23T07:45:43.259Z,38.36
2019-03-23T07:46:45.290Z,39.50
2019-03-23T07:47:47.251Z,35.27
2019-03-23T07:48:49.425Z,36.81
2019-03-23T07:49:51.515Z,36.86
2019-03-23T07:50:53.631Z,39.56
2019-03-23T07:51:55.883Z,42.22
2019-03-23T07:52:58.032Z,36.20
2019-03-23T07:54:02.533Z,36.60
2019-03-23T07:55:12.695Z,37.53
2019-03-23T07:56:14.667Z,36.86
2019-03-23T07:57:16.757Z,36.35
2019-03-23T07:58:18.483Z,36.29
2019-03-23T07:59:20.578Z,31.16
2019-03-23T08:00:22.860Z,30.78
2019-03-23T08:01:24.958Z,38.98
2019-03-23T08:02:27.024Z,33.51
2019-03-23T08:03:29.116Z,34.99
2019-03-23T08:04:31.408Z,35.77
2019-03-23T08:05:33.530Z,34.91
2019-03-23T08:06:35.226Z,35.90
2019-03-23T08:07:37.408Z,40.23
2019-03-23T08:08:39.368Z,34.17
2019-03-23T08:09:41.369Z,35.73
2019-03-23T08:10:43.446Z,33.67
2019-03-23T08:11:45.529Z,34.16
2019-03-23T08:12:47.426Z,32.96
2019-03-23T08:13:49.474Z,34.99
2019-03-23T08:14:51.582Z,32.22
2019-03-23T08:15:53.473Z,31.19
2019-03-23T08:16:55.610Z,31.70
2019-03-23T08:17:57.785Z,32.57
2019-03-23T08:18:59.907Z,38.82
2019-03-23T08:20:04.071Z,35.34
2019-03-23T08:21:06.053Z,41.68
2019-03-23T08:22:08.083Z,43.77
2019-03-23T08:23:10.382Z,44.15
2019-03-23T08:24:12.135Z,43.76
2019-03-23T08:25:14.313Z,42.92
2019-03-23T08:26:16.524Z,42.68
2019-03-23T08:27:18.580Z,42.24
2019-03-23T08:28:20.417Z,42.19
2019-03-23T08:29:22.368Z,41.69
2019-03-23T08:30:24.310Z,41.40
2019-03-23T08:31:26.236Z,39.04
2019-03-23T08:32:29.390Z,40.71
2019-03-23T08:33:32.417Z,40.30
2019-03-23T08:34:34.115Z,40.14
2019-03-23T08:35:36.123Z,40.11
2019-03-23T08:36:38.079Z,39.96
2019-03-23T08:37:40.215Z,37.59
2019-03-23T08:38:42.396Z,39.46
2019-03-23T08:39:48.347Z,39.12
2019-03-23T08:40:48.468Z,38.93
2019-03-23T08:41:50.512Z,38.70
2019-03-23T08:42:52.271Z,38.23
2019-03-23T08:43:54.212Z,39.03
2019-03-23T08:44:56.190Z,39.20
2019-03-23T08:45:57.867Z,39.26
2019-03-23T08:47:02.035Z,39.16
2019-03-23T08:48:04.300Z,39.57
2019-03-23T08:49:06.647Z,39.76
2019-03-23T08:50:11.472Z,40.63
2019-03-23T08:51:13.653Z,40.84
2019-03-23T08:52:15.720Z,39.94
2019-03-23T08:53:17.800Z,39.83
2019-03-23T08:54:19.933Z,39.99
2019-03-23T08:55:22.508Z,39.95
2019-03-23T08:56:24.850Z,39.72
2019-03-23T08:57:26.613Z,40.24
2019-03-23T08:58:28.994Z,39.20
2019-03-23T08:59:30.999Z,39.73
2019-03-23T09:00:33.110Z,39.04
2019-03-23T09:01:35.302Z,39.30
2019-03-23T09:02:37.587Z,39.86
2019-03-23T09:03:39.676Z,39.36
2019-03-23T09:04:42.484Z,39.77
2019-03-23T09:05:44.570Z,39.48
2019-03-23T09:06:47.226Z,39.67
2019-03-23T09:07:52.494Z,39.20
2019-03-23T09:08:54.418Z,37.49
2019-03-23T09:09:59.497Z,38.70
2019-03-23T09:11:00.473Z,38.95
2019-03-23T09:12:02.993Z,38.86
2019-03-23T09:13:04.759Z,38.61
2019-03-23T09:14:06.965Z,38.74
2019-03-23T09:15:09.400Z,36.77
2019-03-23T09:16:11.390Z,38.29
2019-03-23T09:17:15.481Z,38.14
2019-03-23T09:18:17.479Z,37.21
2019-03-23T09:19:19.281Z,37.91
2019-03-23T09:20:21.495Z,34.94
2019-03-23T09:21:23.321Z,37.25
2019-03-23T09:22:25.222Z,36.91
2019-03-23T09:23:27.300Z,36.21
2019-03-23T09:24:29.417Z,36.46
2019-03-23T09:25:31.819Z,36.45
2019-03-23T09:26:34.193Z,37.18
2019-03-23T09:27:36.371Z,36.65
2019-03-23T09:28:38.727Z,37.09
2019-03-23T09:29:40.900Z,37.03
2019-03-23T09:30:42.873Z,37.68
2019-03-23T09:31:44.904Z,36.80
2019-03-23T09:32:47.965Z,37.76
2019-03-23T09:33:49.617Z,37.24
2019-03-23T09:34:51.784Z,37.02
2019-03-23T09:35:53.891Z,36.94
2019-03-23T09:36:55.656Z,36.85
2019-03-23T09:37:57.663Z,36.79
2019-03-23T09:38:59.735Z,36.76
2019-03-23T09:40:09.966Z,36.78
2019-03-23T09:41:08.122Z,36.09
2019-03-23T09:42:10.525Z,36.50
2019-03-23T09:43:12.483Z,36.41
2019-03-23T09:44:14.491Z,36.08
2019-03-23T09:45:16.172Z,36.23
2019-03-23T09:46:18.183Z,36.20
2019-03-23T09:47:20.284Z,36.05
2019-03-23T09:48:22.664Z,34.16
2019-03-23T09:49:25.052Z,35.90
2019-03-23T09:50:29.186Z,35.86
2019-03-23T09:51:31.264Z,35.78
2019-03-23T09:52:33.502Z,35.47
2019-03-23T09:53:35.544Z,35.50
2019-03-23T09:54:37.742Z,35.43
2019-03-23T09:55:40.059Z,35.21
2019-03-23T09:56:42.075Z,35.36
2019-03-23T09:57:44.178Z,35.43
2019-03-23T09:58:46.468Z,35.32
2019-03-23T09:59:48.592Z,34.99
2019-03-23T10:00:50.763Z,35.12
2019-03-23T10:01:52.994Z,35.13
2019-03-23T10:02:55.035Z,35.15
2019-03-23T10:03:57.046Z,35.05
2019-03-23T10:04:59.087Z,32.29
2019-03-23T10:06:01.184Z,34.48
2019-03-23T10:07:03.153Z,34.75
2019-03-23T10:08:05.274Z,34.79
2019-03-23T10:09:07.523Z,34.70
2019-03-23T10:10:09.833Z,34.75
2019-03-23T10:11:11.968Z,34.58
2019-03-23T10:12:14.266Z,34.58
2019-03-23T10:13:17.386Z,34.51
2019-03-23T10:14:19.688Z,34.58
2019-03-23T10:15:21.380Z,34.48
2019-03-23T10:16:23.333Z,32.97
2019-03-23T10:17:26.085Z,34.31
2019-03-23T10:18:28.619Z,34.30
2019-03-23T10:19:30.632Z,34.30
2019-03-23T10:20:32.783Z,34.29
2019-03-23T10:21:34.998Z,34.13
2019-03-23T10:22:36.741Z,33.27
2019-03-23T10:23:38.761Z,34.09
2019-03-23T10:24:40.981Z,34.08
2019-03-23T10:25:42.715Z,34.06
2019-03-23T10:26:44.848Z,34.12
2019-03-23T10:27:46.845Z,34.00
2019-03-23T10:28:50.465Z,33.91
2019-03-23T10:29:52.586Z,33.56
2019-03-23T10:30:55.433Z,33.69
2019-03-23T10:31:57.464Z,33.52
2019-03-23T10:32:59.407Z,33.58
2019-03-23T10:34:01.317Z,33.64
2019-03-23T10:35:07.445Z,33.55
2019-03-23T10:36:09.461Z,33.62
2019-03-23T10:37:11.736Z,33.50
2019-03-23T10:38:14.048Z,33.33
2019-03-23T10:39:16.073Z,33.27
2019-03-23T10:40:17.785Z,30.84
2019-03-23T10:41:19.941Z,33.27
2019-03-23T10:42:22.152Z,33.10
2019-03-23T10:43:24.261Z,33.14
2019-03-23T10:44:26.260Z,33.07
2019-03-23T10:45:28.443Z,32.95
2019-03-23T10:46:30.539Z,33.01
2019-03-23T10:47:32.742Z,32.91
2019-03-23T10:48:34.404Z,33.00
2019-03-23T10:49:36.512Z,33.05
2019-03-23T10:50:38.714Z,32.08
2019-03-23T10:51:40.393Z,32.99
2019-03-23T10:52:42.117Z,33.02
2019-03-23T10:53:44.412Z,32.67
2019-03-23T10:54:46.282Z,32.89
2019-03-23T10:55:49.339Z,32.94
2019-03-23T10:57:53.292Z,31.85
2019-03-23T10:58:55.566Z,32.77
2019-03-23T10:59:57.584Z,32.77
2019-03-23T11:00:59.894Z,32.63
2019-03-23T11:02:02.198Z,32.93
2019-03-23T11:03:05.616Z,32.79
2019-03-23T11:04:07.629Z,32.15
2019-03-23T11:05:10.287Z,31.46
2019-03-23T11:06:12.718Z,32.81
2019-03-23T11:07:15.461Z,32.89
2019-03-23T11:08:17.964Z,32.74
2019-03-23T11:09:20.158Z,32.81
2019-03-23T11:10:22.448Z,31.96
2019-03-23T11:11:25.972Z,32.73
2019-03-23T11:12:28.138Z,32.84
2019-03-23T11:13:31.030Z,32.68
2019-03-23T11:14:33.342Z,32.88
2019-03-23T11:15:36.504Z,32.87
2019-03-23T11:16:39.725Z,32.73
2019-03-23T11:17:42.291Z,32.53
2019-03-23T11:18:44.106Z,30.49
2019-03-23T11:19:47.597Z,31.25
2019-03-23T11:20:49.846Z,32.15
2019-03-23T11:21:51.687Z,32.54
2019-03-23T11:22:53.699Z,32.62
2019-03-23T11:23:57.461Z,32.58
2019-03-23T11:24:59.475Z,32.58
2019-03-23T11:26:01.455Z,32.55
2019-03-23T11:27:03.770Z,32.31
2019-03-23T11:28:05.745Z,32.33
2019-03-23T11:29:08.540Z,32.42
2019-03-23T11:30:13.012Z,32.18
2019-03-23T11:31:17.183Z,32.20
2019-03-23T11:32:19.371Z,32.19
2019-03-23T11:33:21.255Z,32.32
2019-03-23T11:34:23.293Z,32.35
2019-03-23T11:35:25.490Z,32.14
2019-03-23T11:36:27.249Z,32.01
2019-03-23T11:37:29.599Z,31.46
2019-03-23T11:38:31.800Z,32.21
2019-03-23T11:39:33.441Z,32.11
2019-03-23T11:40:35.710Z,31.38
2019-03-23T11:41:37.788Z,31.42
2019-03-23T11:42:49.159Z,31.93
2019-03-23T11:43:44.189Z,30.10
2019-03-23T11:44:46.463Z,32.00
2019-03-23T11:45:49.229Z,32.17
2019-03-23T11:46:51.507Z,32.09
2019-03-23T11:47:55.201Z,32.02
2019-03-23T11:48:57.198Z,29.08
2019-03-23T11:49:59.564Z,31.89
2019-03-23T11:51:02.046Z,32.03
2019-03-23T11:52:03.794Z,32.00
2019-03-23T11:53:05.972Z,32.14
2019-03-23T11:54:08.102Z,32.16
2019-03-23T11:55:10.336Z,32.13
2019-03-23T11:56:12.313Z,31.71
2019-03-23T11:57:14.104Z,31.96
2019-03-23T11:58:15.917Z,32.32
2019-03-23T11:59:18.058Z,32.21
2019-03-23T12:00:20.128Z,31.70
2019-03-23T12:01:22.298Z,31.52
2019-03-23T12:02:26.691Z,32.06
2019-03-23T12:03:29.904Z,32.17
2019-03-23T12:04:32.160Z,32.20
2019-03-23T12:05:34.298Z,32.14
2019-03-23T12:06:36.836Z,32.17
2019-03-23T12:07:39.098Z,29.65
2019-03-23T12:08:41.181Z,31.74
2019-03-23T12:09:42.992Z,31.70
2019-03-23T12:10:45.078Z,31.84
2019-03-23T12:11:47.262Z,31.85
2019-03-23T12:12:49.689Z,31.80
2019-03-23T12:13:51.837Z,34.02
2019-03-23T12:14:53.993Z,31.20
2019-03-23T12:15:55.775Z,32.28
2019-03-23T12:16:57.959Z,31.55
2019-03-23T12:17:59.972Z,31.16
2019-03-23T12:19:02.185Z,33.67
2019-03-23T12:20:05.881Z,34.79
2019-03-23T12:21:07.985Z,35.78
2019-03-23T12:22:10.248Z,36.20
2019-03-23T12:23:12.398Z,35.35
2019-03-23T12:24:14.577Z,33.00
2019-03-23T12:25:16.548Z,28.91
2019-03-23T12:26:19.066Z,29.42
2019-03-23T12:27:21.271Z,29.24
2019-03-23T12:28:22.937Z,27.31
2019-03-23T12:29:25.261Z,26.96
2019-03-23T12:30:27.550Z,25.91
2019-03-23T12:31:29.634Z,25.41
2019-03-23T12:32:31.743Z,25.18
2019-03-23T12:33:33.498Z,24.28
2019-03-23T12:34:35.504Z,24.32
2019-03-23T12:35:37.675Z,24.53
2019-03-23T12:36:40.017Z,24.92
2019-03-23T12:37:42.548Z,24.81
2019-03-23T12:38:44.947Z,24.93
2019-03-23T12:39:47.388Z,21.77
2019-03-23T12:40:49.625Z,25.17
2019-03-23T12:41:51.480Z,23.45
2019-03-23T12:42:53.699Z,25.29
2019-03-23T12:43:55.442Z,25.35
2019-03-23T12:44:57.646Z,24.67
2019-03-23T12:45:59.342Z,24.29
2019-03-23T12:47:01.447Z,24.45
2019-03-23T12:48:03.896Z,24.71
2019-03-23T12:49:07.250Z,24.52
2019-03-23T12:50:10.272Z,24.72
2019-03-23T12:51:12.522Z,25.12
2019-03-23T12:52:14.776Z,25.26
2019-03-23T12:53:16.917Z,26.92
2019-03-23T12:54:19.129Z,25.23
2019-03-23T12:55:21.336Z,25.00
2019-03-23T12:56:23.862Z,24.90
2019-03-23T12:57:27.006Z,25.08
2019-03-23T12:58:28.760Z,25.10
2019-03-23T12:59:30.651Z,25.01
2019-03-23T13:00:33.227Z,25.31
2019-03-23T13:01:35.462Z,25.67
2019-03-23T13:02:37.465Z,22.13
2019-03-23T13:03:39.121Z,25.34
2019-03-23T13:04:41.111Z,24.31
2019-03-23T13:05:43.399Z,25.76
2019-03-23T13:06:45.683Z,26.06
2019-03-23T13:07:48.006Z,22.47
2019-03-23T13:08:50.047Z,22.92
2019-03-23T13:09:51.862Z,26.26
2019-03-23T13:10:54.231Z,26.05
2019-03-23T13:11:56.547Z,25.92
2019-03-23T13:12:58.496Z,26.35
2019-03-23T13:14:00.736Z,25.98
2019-03-23T13:15:06.702Z,25.85
2019-03-23T13:16:08.703Z,25.50
2019-03-23T13:17:10.822Z,24.50
2019-03-23T13:18:13.110Z,25.08
2019-03-23T13:19:15.010Z,25.19
2019-03-23T13:20:17.193Z,25.26
2019-03-23T13:21:19.347Z,25.55
2019-03-23T13:22:21.023Z,24.24
2019-03-23T13:23:23.029Z,25.63
2019-03-23T13:24:26.842Z,25.50